createdAt,value
2022-09-13T00:00:00.042Z,83.49
2022-09-13T00:02:27.549Z,84.78
2022-09-13T00:04:55.581Z,83.91
2022-09-13T00:07:23.179Z,84.17
2022-09-13T00:09:50.727Z,84.26
2022-09-13T00:12:18.657Z,84.09
2022-09-13T00:14:46.273Z,84.25
2022-09-13T00:17:13.989Z,84.24
2022-09-13T00:19:41.963Z,83.33
2022-09-13T00:22:09.487Z,83.16
2022-09-13T00:24:37.438Z,82.97
2022-09-13T00:27:04.960Z,82.96
2022-09-13T00:29:32.566Z,82.71
2022-09-13T00:32:02.951Z,83.41
2022-09-13T00:34:30.986Z,82.82
2022-09-13T00:36:58.884Z,82.01
2022-09-13T00:39:26.707Z,82.86
2022-09-13T00:41:55.065Z,83.07
2022-09-13T00:44:51.480Z,83.19
2022-09-13T00:47:41.515Z,83.17
2022-09-13T00:50:24.284Z,83.42
2022-09-13T00:53:01.506Z,83.71
2022-09-13T00:55:34.853Z,82.67
2022-09-13T00:58:09.001Z,83.58
2022-09-13T01:00:38.929Z,84.11
2022-09-13T01:03:11.178Z,85.03
2022-09-13T01:05:51.185Z,85.76
2022-09-13T01:08:23.272Z,85.35
2022-09-13T01:10:52.752Z,86.13
2022-09-13T01:13:23.150Z,86.04
2022-09-13T01:15:52.015Z,86.15
2022-09-13T01:18:19.914Z,86.51
2022-09-13T01:21:09.334Z,86.47
2022-09-13T01:23:47.632Z,87.60
2022-09-13T01:26:27.338Z,87.87
2022-09-13T01:29:05.247Z,89.13
2022-09-13T01:31:44.519Z,87.61
2022-09-13T01:34:33.926Z,87.04
2022-09-13T01:37:20.042Z,87.01
2022-09-13T01:40:17.796Z,85.96
2022-09-13T01:43:01.556Z,86.68
2022-09-13T01:45:48.635Z,86.52
2022-09-13T01:48:42.371Z,86.46
2022-09-13T01:51:44.516Z,86.70
2022-09-13T01:54:26.992Z,87.85
2022-09-13T01:57:16.325Z,87.09
2022-09-13T01:59:52.756Z,85.80
2022-09-13T02:02:31.891Z,85.49
2022-09-13T02:05:06.499Z,86.12
2022-09-13T02:08:00.686Z,85.70
2022-09-13T02:10:32.318Z,86.59
2022-09-13T02:13:02.901Z,87.44
2022-09-13T02:15:37.923Z,88.00
2022-09-13T02:18:41.265Z,91.09
2022-09-13T02:21:20.462Z,92.21
2022-09-13T02:23:53.551Z,93.23
2022-09-13T02:26:24.398Z,92.54
2022-09-13T02:28:54.854Z,91.32
2022-09-13T02:31:30.075Z,91.90
2022-09-13T02:34:04.280Z,91.30
2022-09-13T02:36:40.626Z,90.27
2022-09-13T02:39:14.246Z,89.78
2022-09-13T02:42:11.779Z,88.78
2022-09-13T02:44:45.412Z,89.34
2022-09-13T02:47:34.283Z,91.68
2022-09-13T02:50:25.876Z,92.23
2022-09-13T02:53:18.259Z,93.10
2022-09-13T02:56:08.659Z,92.77
2022-09-13T02:59:21.226Z,92.54
2022-09-13T03:01:55.119Z,92.20
2022-09-13T03:04:22.818Z,91.53
2022-09-13T03:06:50.644Z,91.17
2022-09-13T03:09:20.110Z,90.56
2022-09-13T03:12:35.169Z,91.12
2022-09-13T03:15:19.870Z,90.66
2022-09-13T03:18:24.845Z,90.16
2022-09-13T03:21:11.951Z,89.66
2022-09-13T03:23:45.501Z,90.55
2022-09-13T03:26:43.217Z,91.08
2022-09-13T03:29:23.540Z,91.53
2022-09-13T03:32:16.980Z,90.94
2022-09-13T03:34:56.281Z,91.65
2022-09-13T03:37:43.760Z,90.22
2022-09-13T03:40:22.313Z,89.71
2022-09-13T03:43:00.254Z,89.51
2022-09-13T03:45:33.257Z,89.89
2022-09-13T03:48:03.056Z,89.62
2022-09-13T03:50:32.040Z,89.44
2022-09-13T03:53:09.001Z,90.63
2022-09-13T03:55:41.805Z,91.10
2022-09-13T03:58:14.593Z,90.17
2022-09-13T04:00:43.511Z,90.12
2022-09-13T04:03:11.914Z,90.19
2022-09-13T04:05:40.179Z,91.77
2022-09-13T04:08:08.646Z,92.48
2022-09-13T04:10:37.783Z,92.00
2022-09-13T04:13:06.192Z,92.44
2022-09-13T04:15:34.287Z,92.22
2022-09-13T04:18:01.754Z,92.38
2022-09-13T04:20:29.503Z,93.50
2022-09-13T04:22:58.032Z,93.82
2022-09-13T04:25:25.798Z,94.43
2022-09-13T04:27:58.229Z,94.59
2022-09-13T04:30:28.233Z,95.63
2022-09-13T04:32:59.738Z,96.14
2022-09-13T04:35:28.732Z,96.97
2022-09-13T04:37:58.198Z,96.77
2022-09-13T04:40:26.233Z,96.09
2022-09-13T04:42:54.291Z,95.64
2022-09-13T04:45:22.234Z,96.32
2022-09-13T04:47:54.116Z,98.43
2022-09-13T04:50:23.142Z,97.12
2022-09-13T04:52:52.175Z,96.94
2022-09-13T04:55:20.600Z,97.97
2022-09-13T04:57:48.149Z,98.52
2022-09-13T05:00:16.335Z,98.47
2022-09-13T05:02:44.592Z,98.18
2022-09-13T05:05:12.428Z,98.07
2022-09-13T05:07:40.302Z,97.30
2022-09-13T05:10:08.472Z,97.39
2022-09-13T05:12:35.970Z,97.93
2022-09-13T05:15:03.630Z,97.53
2022-09-13T05:17:32.154Z,98.13
2022-09-13T05:20:00.157Z,96.50
2022-09-13T05:22:27.681Z,95.18
2022-09-13T05:24:56.395Z,94.46
2022-09-13T05:27:23.918Z,94.31
2022-09-13T05:29:51.491Z,94.02
2022-09-13T05:32:19.383Z,94.41
2022-09-13T05:34:47.946Z,94.23
2022-09-13T05:37:15.481Z,93.52
2022-09-13T05:40:09.827Z,92.29
2022-09-13T05:42:30.993Z,91.80
2022-09-13T05:44:58.501Z,93.37
2022-09-13T05:47:26.462Z,91.51
2022-09-13T05:50:11.014Z,91.23
2022-09-13T05:52:41.237Z,91.12
2022-09-13T05:55:09.943Z,89.86
2022-09-13T05:57:37.973Z,89.18
2022-09-13T06:00:06.371Z,87.00
2022-09-13T06:02:41.437Z,86.28
2022-09-13T06:05:10.810Z,86.18
2022-09-13T06:07:42.598Z,84.36
2022-09-13T06:10:11.643Z,83.33
2022-09-13T06:12:39.658Z,84.06
2022-09-13T06:15:09.227Z,83.36
2022-09-13T06:17:37.323Z,84.24
2022-09-13T06:20:05.439Z,84.32
2022-09-13T06:22:35.246Z,82.77
2022-09-13T06:25:03.015Z,82.35
2022-09-13T06:27:31.616Z,81.14
2022-09-13T06:29:59.297Z,80.09
2022-09-13T06:32:26.914Z,79.28
2022-09-13T06:34:54.442Z,78.40
2022-09-13T06:37:22.406Z,77.68
2022-09-13T06:39:50.492Z,78.11
2022-09-13T06:42:18.661Z,74.83
2022-09-13T06:44:46.372Z,73.64
2022-09-13T06:47:14.918Z,74.19
2022-09-13T06:49:42.682Z,77.78
2022-09-13T06:52:10.625Z,80.53
2022-09-13T06:54:38.659Z,79.42
2022-09-13T06:57:06.469Z,79.99
2022-09-13T06:59:35.063Z,78.12
2022-09-13T07:02:03.121Z,77.55
2022-09-13T07:04:31.804Z,78.00
2022-09-13T07:06:59.939Z,77.36
2022-09-13T07:09:28.301Z,76.39
2022-09-13T07:11:56.727Z,76.84
2022-09-13T07:14:26.186Z,73.96
2022-09-13T07:16:54.428Z,74.58
2022-09-13T07:19:24.365Z,74.99
2022-09-13T07:21:52.487Z,74.08
2022-09-13T07:24:21.479Z,72.41
2022-09-13T07:26:49.239Z,72.81
2022-09-13T07:29:19.857Z,73.36
2022-09-13T07:31:49.665Z,73.02
2022-09-13T07:34:23.076Z,75.08
2022-09-13T07:36:51.033Z,73.41
2022-09-13T07:39:22.319Z,73.80
2022-09-13T07:41:51.901Z,74.08
2022-09-13T07:44:20.036Z,73.60
2022-09-13T07:46:48.100Z,74.48
2022-09-13T07:49:19.089Z,74.33
2022-09-13T07:51:47.089Z,77.61
2022-09-13T07:54:17.925Z,78.70
2022-09-13T07:56:46.467Z,77.57
2022-09-13T07:59:16.343Z,75.55
2022-09-13T08:01:47.457Z,76.22
2022-09-13T08:04:18.918Z,76.42
2022-09-13T08:06:47.524Z,75.16
2022-09-13T08:09:15.951Z,74.44
2022-09-13T08:11:49.159Z,74.43
2022-09-13T08:14:18.951Z,74.43
2022-09-13T08:16:47.002Z,75.19
2022-09-13T08:19:17.319Z,75.21
2022-09-13T08:21:46.083Z,73.83
2022-09-13T08:24:17.182Z,73.33
2022-09-13T08:26:45.584Z,74.25
2022-09-13T08:29:14.450Z,73.96
2022-09-13T08:31:42.448Z,72.94
2022-09-13T08:34:12.962Z,73.65
2022-09-13T08:36:41.272Z,74.21
2022-09-13T08:39:10.260Z,71.71
2022-09-13T08:41:42.230Z,70.87
2022-09-13T08:44:31.177Z,69.95
2022-09-13T08:47:17.556Z,67.15
2022-09-13T08:49:49.265Z,68.25
2022-09-13T08:52:28.720Z,66.38
2022-09-13T08:54:58.727Z,65.78
2022-09-13T08:57:47.553Z,63.11
2022-09-13T09:00:32.285Z,61.16
2022-09-13T09:03:18.623Z,62.64
2022-09-13T09:05:49.701Z,60.11
2022-09-13T09:08:43.313Z,58.04
2022-09-13T09:11:42.755Z,60.98
2022-09-13T09:14:58.304Z,51.37
2022-09-13T09:18:02.295Z,49.62
2022-09-13T09:20:46.699Z,47.31
2022-09-13T09:23:27.630Z,45.25
2022-09-13T09:26:16.226Z,43.03
2022-09-13T09:29:05.304Z,41.84
2022-09-13T09:31:51.027Z,42.34
2022-09-13T09:34:42.854Z,41.33
2022-09-13T09:37:21.317Z,41.73
2022-09-13T09:39:51.076Z,39.79
2022-09-13T09:42:29.095Z,38.40
2022-09-13T09:45:03.757Z,38.05
2022-09-13T09:47:46.016Z,38.34
2022-09-13T09:50:18.781Z,40.16
2022-09-13T09:52:56.756Z,39.82
2022-09-13T09:55:29.943Z,39.21
2022-09-13T09:58:06.628Z,37.72
2022-09-13T10:00:58.015Z,36.37
2022-09-13T10:03:29.462Z,36.71
2022-09-13T10:06:14.144Z,34.66
2022-09-13T10:08:44.068Z,33.77
2022-09-13T10:11:13.014Z,36.52
2022-09-13T10:13:59.182Z,34.72
2022-09-13T10:16:29.796Z,34.33
2022-09-13T10:19:24.854Z,34.29
2022-09-13T10:22:06.002Z,31.70
2022-09-13T10:24:33.802Z,31.35
2022-09-13T10:27:04.223Z,32.00
2022-09-13T10:29:32.221Z,32.24
2022-09-13T10:32:07.789Z,30.79
2022-09-13T10:34:37.218Z,29.60
2022-09-13T10:37:14.905Z,30.07
2022-09-13T10:40:34.167Z,30.45
2022-09-13T10:43:05.003Z,31.91
2022-09-13T10:45:33.267Z,31.57
2022-09-13T10:48:07.175Z,30.67
2022-09-13T10:50:36.297Z,30.74
2022-09-13T10:53:05.722Z,31.94
2022-09-13T10:55:41.029Z,31.69
2022-09-13T10:58:08.640Z,31.48
2022-09-13T11:00:54.495Z,30.98
2022-09-13T11:03:59.783Z,28.76
2022-09-13T11:06:42.197Z,29.13
2022-09-13T11:09:28.019Z,29.38
2022-09-13T11:12:27.426Z,29.50
2022-09-13T11:15:15.941Z,29.02
2022-09-13T11:17:52.526Z,30.28
2022-09-13T11:20:38.650Z,28.72
2022-09-13T11:23:25.578Z,28.33
2022-09-13T11:26:17.671Z,28.11
2022-09-13T11:28:58.911Z,28.92
2022-09-13T11:31:41.849Z,28.65
2022-09-13T11:34:32.665Z,28.58
2022-09-13T11:37:09.801Z,28.72
2022-09-13T11:39:42.883Z,29.05
2022-09-13T11:42:16.040Z,30.24
2022-09-13T11:45:08.377Z,29.86
2022-09-13T11:47:59.538Z,28.77
2022-09-13T11:50:44.468Z,28.92
2022-09-13T11:53:18.046Z,28.50
2022-09-13T11:55:54.424Z,27.43
2022-09-13T11:58:46.305Z,25.47
2022-09-13T12:01:21.975Z,24.54
2022-09-13T12:04:33.087Z,25.28
2022-09-13T12:07:06.298Z,25.05
2022-09-13T12:10:00.332Z,26.83
2022-09-13T12:12:34.453Z,28.29
2022-09-13T12:15:15.736Z,29.57
2022-09-13T12:17:53.141Z,27.94
2022-09-13T12:20:35.542Z,26.20
2022-09-13T12:23:08.672Z,26.38
2022-09-13T12:26:05.224Z,26.51
2022-09-13T12:28:41.760Z,25.33
2022-09-13T12:31:19.762Z,25.90
2022-09-13T12:33:49.175Z,26.16
2022-09-13T12:36:23.096Z,25.62
2022-09-13T12:39:06.660Z,26.57
2022-09-13T12:41:53.426Z,25.63
2022-09-13T12:44:39.006Z,25.71
2022-09-13T12:47:41.146Z,25.72
2022-09-13T12:50:44.153Z,25.39
2022-09-13T12:53:36.890Z,26.18
2022-09-13T12:56:31.119Z,27.05
2022-09-13T12:59:25.923Z,26.81
2022-09-13T13:01:54.495Z,25.48
2022-09-13T13:04:35.904Z,25.36
2022-09-13T13:07:08.363Z,26.26
2022-09-13T13:09:43.786Z,23.71
2022-09-13T13:12:29.789Z,23.66
2022-09-13T13:14:58.526Z,24.06
2022-09-13T13:17:53.629Z,22.67
2022-09-13T13:20:47.610Z,20.48
2022-09-13T13:23:36.552Z,19.69
2022-09-13T13:26:32.990Z,20.30
2022-09-13T13:29:11.562Z,20.16
2022-09-13T13:31:42.363Z,18.68
2022-09-13T13:34:16.550Z,20.38
2022-09-13T13:36:49.077Z,19.67
2022-09-13T13:39:25.997Z,21.12
2022-09-13T13:41:59.115Z,21.79
2022-09-13T13:44:27.125Z,22.19
2022-09-13T13:47:15.364Z,23.41
2022-09-13T13:49:52.669Z,23.09
2022-09-13T13:52:22.723Z,23.00
2022-09-13T13:55:04.824Z,22.25
2022-09-13T13:57:50.271Z,21.71
2022-09-13T14:00:18.142Z,21.30
2022-09-13T14:03:16.295Z,22.60
2022-09-13T14:06:01.054Z,23.84
2022-09-13T14:09:02.658Z,25.15
2022-09-13T14:12:10.839Z,25.90
2022-09-13T14:14:47.715Z,27.25
2022-09-13T14:17:32.091Z,28.93
2022-09-13T14:20:13.327Z,28.14
2022-09-13T14:22:40.886Z,26.60
2022-09-13T14:25:24.582Z,26.88
2022-09-13T14:27:59.412Z,25.99
2022-09-13T14:30:35.804Z,23.69
2022-09-13T14:33:08.788Z,23.88
2022-09-13T14:35:38.162Z,23.50
2022-09-13T14:38:31.041Z,23.03
2022-09-13T14:41:01.877Z,22.44
2022-09-13T14:43:31.050Z,21.40
2022-09-13T14:46:17.246Z,20.02
2022-09-13T14:49:08.650Z,18.65
2022-09-13T14:51:42.017Z,19.29
2022-09-13T14:54:40.770Z,17.75
2022-09-13T14:57:21.206Z,16.47
2022-09-13T14:59:52.766Z,16.47
2022-09-13T15:02:30.023Z,16.56
2022-09-13T15:04:59.991Z,17.91
2022-09-13T15:07:32.235Z,18.23
2022-09-13T15:10:11.086Z,18.16
2022-09-13T15:12:54.364Z,17.84
2022-09-13T15:15:21.839Z,17.46
2022-09-13T15:17:52.426Z,17.19
2022-09-13T15:20:22.271Z,16.76
2022-09-13T15:22:54.154Z,17.42
2022-09-13T15:25:26.259Z,18.42
2022-09-13T15:27:58.170Z,18.94
2022-09-13T15:30:32.379Z,19.12
2022-09-13T15:33:12.768Z,20.69
2022-09-13T15:35:43.259Z,22.83
2022-09-13T15:38:29.055Z,24.37
2022-09-13T15:41:10.798Z,26.37
2022-09-13T15:43:38.603Z,27.19
2022-09-13T15:46:06.874Z,27.41
2022-09-13T15:48:36.255Z,28.64
2022-09-13T15:51:07.427Z,30.63
2022-09-13T15:53:37.470Z,30.17
2022-09-13T15:56:07.215Z,31.22
2022-09-13T15:58:36.007Z,31.46
2022-09-13T16:01:05.147Z,33.00
2022-09-13T16:03:32.852Z,33.02
2022-09-13T16:06:00.577Z,34.64
2022-09-13T16:08:28.503Z,34.24
2022-09-13T16:10:56.534Z,34.71
2022-09-13T16:13:24.238Z,35.93
2022-09-13T16:15:55.823Z,37.65
2022-09-13T16:18:25.647Z,37.71
2022-09-13T16:20:53.168Z,37.96
2022-09-13T16:23:21.629Z,39.07
2022-09-13T16:25:55.709Z,39.88
2022-09-13T16:28:23.356Z,39.89
2022-09-13T16:30:51.568Z,40.36
2022-09-13T16:33:19.787Z,40.97
2022-09-13T16:35:47.951Z,41.06
2022-09-13T16:38:15.963Z,41.35
2022-09-13T16:40:45.243Z,41.97
2022-09-13T16:43:13.660Z,42.11
2022-09-13T16:45:43.021Z,42.51
2022-09-13T16:48:11.183Z,43.60
2022-09-13T16:50:41.793Z,43.22
2022-09-13T16:53:10.055Z,44.18
2022-09-13T16:55:40.104Z,43.19
2022-09-13T16:58:07.996Z,42.69
2022-09-13T17:00:35.823Z,42.94
2022-09-13T17:03:04.172Z,44.01
2022-09-13T17:05:32.254Z,44.78
2022-09-13T17:08:00.130Z,45.29
2022-09-13T17:10:28.882Z,46.01
2022-09-13T17:12:56.504Z,45.41
2022-09-13T17:15:24.153Z,45.97
2022-09-13T17:17:52.638Z,45.82
2022-09-13T17:20:20.873Z,46.94
2022-09-13T17:22:50.313Z,46.55
2022-09-13T17:25:20.835Z,47.20
2022-09-13T17:27:48.456Z,47.97
2022-09-13T17:30:15.950Z,48.78
2022-09-13T17:32:43.455Z,49.21
2022-09-13T17:35:12.086Z,49.81
2022-09-13T17:37:39.662Z,50.48
2022-09-13T17:40:08.086Z,50.68
2022-09-13T17:42:35.625Z,50.97
2022-09-13T17:45:03.303Z,51.03
2022-09-13T17:47:31.090Z,51.06
2022-09-13T17:49:59.263Z,52.19
2022-09-13T17:52:29.650Z,53.43
2022-09-13T17:55:00.513Z,53.39
2022-09-13T17:57:28.577Z,54.04
2022-09-13T17:59:56.245Z,54.94
2022-09-13T18:02:23.888Z,56.20
2022-09-13T18:04:52.338Z,58.13
2022-09-13T18:07:20.737Z,58.90
2022-09-13T18:09:48.978Z,60.01
2022-09-13T18:12:17.091Z,61.23
2022-09-13T18:14:44.658Z,60.99
2022-09-13T18:17:13.388Z,60.73
2022-09-13T18:19:46.348Z,59.85
2022-09-13T18:22:15.183Z,59.25
2022-09-13T18:24:42.728Z,60.14
2022-09-13T18:27:10.728Z,60.82
2022-09-13T18:29:38.227Z,60.59
2022-09-13T18:32:06.395Z,62.68
2022-09-13T18:34:33.876Z,63.02
2022-09-13T18:37:01.919Z,64.15
2022-09-13T18:39:30.588Z,65.76
2022-09-13T18:41:58.077Z,66.22
2022-09-13T18:44:25.742Z,67.51
2022-09-13T18:46:54.209Z,68.90
2022-09-13T18:49:22.530Z,69.07
2022-09-13T18:51:50.085Z,68.18
2022-09-13T18:54:18.753Z,69.38
2022-09-13T18:56:47.750Z,71.06
2022-09-13T18:59:15.987Z,70.05
2022-09-13T19:01:45.310Z,70.17
2022-09-13T19:04:14.534Z,70.14
2022-09-13T19:06:48.352Z,69.84
2022-09-13T19:09:17.568Z,70.73
2022-09-13T19:11:48.944Z,69.90
2022-09-13T19:14:25.575Z,70.65
2022-09-13T19:16:56.525Z,71.94
2022-09-13T19:19:24.756Z,73.89
2022-09-13T19:21:52.306Z,73.42
2022-09-13T19:24:21.186Z,72.52
2022-09-13T19:26:51.777Z,72.40
2022-09-13T19:29:22.731Z,72.18
2022-09-13T19:31:52.581Z,72.28
2022-09-13T19:34:22.527Z,72.60
2022-09-13T19:36:57.323Z,72.76
2022-09-13T19:39:29.581Z,73.24
2022-09-13T19:42:00.540Z,73.65
2022-09-13T19:44:28.826Z,72.77
2022-09-13T19:47:36.313Z,73.75
2022-09-13T19:49:45.302Z,73.64
2022-09-13T19:52:13.590Z,74.63
2022-09-13T19:54:41.568Z,74.86
2022-09-13T19:57:09.984Z,75.01
2022-09-13T19:59:37.496Z,74.98
2022-09-13T20:02:05.392Z,75.29
2022-09-13T20:04:33.068Z,74.83
2022-09-13T20:07:01.147Z,74.45
2022-09-13T20:09:28.763Z,75.87
2022-09-13T20:12:00.436Z,76.12
2022-09-13T20:14:28.682Z,80.20
2022-09-13T20:16:58.014Z,82.42
2022-09-13T20:19:44.798Z,82.95
2022-09-13T20:22:13.226Z,83.40
2022-09-13T20:24:40.828Z,84.10
2022-09-13T20:38:09.005Z,87.79
2022-09-13T20:40:36.511Z,87.81
2022-09-13T20:44:01.782Z,88.52
2022-09-13T20:47:28.129Z,89.40
2022-09-13T20:49:56.252Z,89.01
2022-09-13T20:52:44.604Z,88.67
2022-09-13T20:55:12.928Z,87.98
2022-09-13T20:58:05.904Z,86.88
2022-09-13T21:00:38.399Z,87.32
2022-09-13T21:03:44.290Z,87.41
2022-09-13T21:06:12.038Z,87.74
2022-09-13T21:08:58.950Z,87.37
2022-09-13T21:11:33.099Z,87.23
2022-09-13T21:14:09.576Z,86.86
2022-09-13T21:16:41.340Z,88.25
2022-09-13T21:19:34.313Z,88.64
2022-09-13T21:22:03.386Z,87.96
2022-09-13T21:24:31.672Z,88.33
2022-09-13T21:26:59.572Z,88.96
2022-09-13T21:29:27.100Z,89.47
2022-09-13T21:31:57.515Z,90.07
2022-09-13T21:34:27.510Z,89.61
2022-09-13T21:36:56.912Z,89.21
2022-09-13T21:39:24.430Z,89.57
2022-09-13T21:41:52.062Z,89.53
2022-09-13T21:44:19.506Z,89.25
2022-09-13T21:46:47.350Z,88.74
2022-09-13T21:49:31.389Z,87.70
2022-09-13T21:51:59.590Z,86.76
2022-09-13T21:54:27.123Z,86.43
2022-09-13T21:56:54.921Z,86.57
2022-09-13T21:59:23.933Z,86.50
2022-09-13T22:02:42.078Z,85.96
2022-09-13T22:05:34.505Z,86.86
2022-09-13T22:08:02.275Z,86.75
2022-09-13T22:10:29.825Z,86.84
2022-09-13T22:12:57.740Z,86.67
2022-09-13T22:15:25.257Z,86.99
2022-09-13T22:21:41.415Z,85.98
2022-09-13T22:24:14.200Z,84.43
2022-09-13T22:26:41.791Z,84.11
2022-09-13T22:29:40.664Z,83.81
2022-09-13T22:32:09.021Z,84.13
2022-09-13T22:34:36.663Z,84.16
2022-09-13T22:37:04.551Z,84.79
2022-09-13T22:39:33.000Z,84.76
2022-09-13T22:42:01.399Z,84.63
2022-09-13T22:44:29.370Z,85.33
2022-09-13T22:47:21.807Z,84.67
2022-09-13T22:50:08.025Z,84.02
2022-09-13T22:53:27.588Z,84.40
2022-09-13T22:55:55.072Z,84.33
2022-09-13T23:02:21.154Z,84.58
2022-09-13T23:04:49.278Z,84.92
2022-09-13T23:07:17.050Z,84.82
2022-09-13T23:13:08.362Z,83.71
2022-09-13T23:16:10.598Z,84.35
2022-09-13T23:19:29.488Z,84.25
2022-09-13T23:21:57.108Z,85.06
2022-09-13T23:24:25.150Z,85.73
2022-09-13T23:26:55.477Z,85.18
2022-09-13T23:29:23.369Z,85.56
2022-09-13T23:31:51.500Z,85.03
2022-09-13T23:34:20.582Z,84.71
2022-09-13T23:36:48.418Z,84.52
2022-09-13T23:39:27.109Z,84.81
2022-09-13T23:41:55.374Z,85.56
2022-09-13T23:44:33.367Z,85.26
2022-09-13T23:47:09.854Z,84.93
2022-09-13T23:49:37.871Z,84.92
2022-09-13T23:52:05.439Z,85.18
2022-09-13T23:54:32.921Z,85.04
2022-09-13T23:57:00.613Z,84.89
